Terminal Aerodrome Forecast
Issued by NWS

Home | Current Version | Previous Version | Graphics & Text | Print | Product List | Glossary On
Versions: 1 2 3 4 5 6 7 8 9 10 11 12 13 14 15 16 17
000
FTUS43 KICT 221120
TAFRSL
TAF
KRSL 221120Z 2212/2312 20014KT P6SM SCT250
     FM221500 20017G24KT P6SM SCT250
     FM230000 17012KT P6SM FEW250=

USA.gov is the U.S. government's official web portal to all federal, state and local government web resources and services.